createdAt,value
2017-08-30T00:00:41.898Z,100917
2017-08-30T00:03:10.078Z,100910
2017-08-30T00:05:38.226Z,100906
2017-08-30T00:08:06.373Z,100904
2017-08-30T00:10:34.578Z,100904
2017-08-30T00:13:02.744Z,100893
2017-08-30T00:15:30.917Z,100885
2017-08-30T00:17:59.128Z,100882
2017-08-30T00:20:27.282Z,100881
2017-08-30T00:22:55.443Z,100885
2017-08-30T00:25:41.410Z,100887
2017-08-30T00:28:09.576Z,100894
2017-08-30T00:30:37.749Z,100915
2017-08-30T00:33:05.926Z,100916
2017-08-30T00:35:34.099Z,100920
2017-08-30T00:38:02.273Z,100911
2017-08-30T00:40:30.485Z,100928
2017-08-30T00:42:58.658Z,100936
2017-08-30T00:45:26.831Z,100942
2017-08-30T00:47:55.805Z,100929
2017-08-30T00:50:23.969Z,100916
2017-08-30T00:52:52.114Z,100918
2017-08-30T00:55:20.314Z,100904
2017-08-30T00:57:48.462Z,100891
2017-08-30T01:00:16.624Z,100890
2017-08-30T01:02:44.815Z,100901
2017-08-30T01:05:12.986Z,100902
2017-08-30T01:07:41.139Z,100887
2017-08-30T01:10:09.347Z,100887
2017-08-30T01:12:37.496Z,100891
2017-08-30T01:15:05.654Z,100888
2017-08-30T01:17:33.884Z,100883
2017-08-30T01:20:02.053Z,100880
2017-08-30T01:22:30.233Z,100876
2017-08-30T01:24:58.410Z,100869
2017-08-30T01:27:26.584Z,100874
2017-08-30T01:29:54.747Z,100874
2017-08-30T01:32:22.943Z,100890
2017-08-30T01:34:51.103Z,100886
2017-08-30T01:37:19.277Z,100886
2017-08-30T01:39:47.451Z,100878
2017-08-30T01:42:16.397Z,100882
2017-08-30T01:44:44.573Z,100883
2017-08-30T01:47:12.772Z,100887
2017-08-30T01:49:40.948Z,100887
2017-08-30T01:52:09.128Z,100885
2017-08-30T01:54:37.307Z,100895
2017-08-30T01:57:05.458Z,100893
2017-08-30T01:59:33.610Z,100903
2017-08-30T02:02:01.791Z,100898
2017-08-30T02:04:29.961Z,100908
2017-08-30T02:06:58.137Z,100915
2017-08-30T02:09:26.333Z,100927
2017-08-30T02:11:54.482Z,100910
2017-08-30T02:14:22.657Z,100882
2017-08-30T02:16:50.837Z,100867
2017-08-30T02:19:19.751Z,100854
2017-08-30T02:21:47.927Z,100848
2017-08-30T02:24:16.113Z,100861
2017-08-30T02:26:44.283Z,100870
2017-08-30T02:29:12.430Z,100870
2017-08-30T02:31:40.615Z,100866
2017-08-30T02:34:08.788Z,100878
2017-08-30T02:36:36.947Z,100886
2017-08-30T02:39:05.904Z,100882
2017-08-30T02:41:34.058Z,100878
2017-08-30T02:44:02.212Z,100874
2017-08-30T02:46:30.414Z,100873
2017-08-30T02:48:58.589Z,100873
2017-08-30T02:51:27.702Z,100876
2017-08-30T02:53:55.897Z,100871
2017-08-30T02:56:24.074Z,100860
2017-08-30T02:58:52.249Z,100862
2017-08-30T03:01:20.423Z,100863
2017-08-30T03:03:48.597Z,100863
2017-08-30T03:06:16.770Z,100862
2017-08-30T03:08:45.979Z,100864
2017-08-30T03:11:14.151Z,100864
2017-08-30T03:13:42.337Z,100873
2017-08-30T03:16:10.510Z,100861
2017-08-30T03:18:38.680Z,100867
2017-08-30T03:21:06.849Z,100869
2017-08-30T03:23:35.820Z,100862
2017-08-30T03:26:03.996Z,100874
2017-08-30T03:28:32.165Z,100869
2017-08-30T03:31:00.367Z,100859
2017-08-30T03:33:29.301Z,100859
2017-08-30T03:35:57.474Z,100858
2017-08-30T03:38:25.650Z,100857
2017-08-30T03:40:53.798Z,100848
2017-08-30T03:43:21.949Z,100859
2017-08-30T03:45:50.158Z,100863
2017-08-30T03:48:18.313Z,100863
2017-08-30T03:50:46.467Z,100862
2017-08-30T03:53:14.651Z,100859
2017-08-30T03:55:42.827Z,100858
2017-08-30T03:58:11.006Z,100866
2017-08-30T04:00:39.183Z,100870
2017-08-30T04:03:07.338Z,100863
2017-08-30T04:05:35.487Z,100857
2017-08-30T04:08:03.668Z,100855
2017-08-30T04:10:31.828Z,100853
2017-08-30T04:12:59.982Z,100860
2017-08-30T04:15:28.159Z,100869
2017-08-30T04:17:56.327Z,100875
2017-08-30T04:20:24.509Z,100872
2017-08-30T04:22:52.714Z,100865
2017-08-30T04:25:20.888Z,100870
2017-08-30T04:27:49.057Z,100861
2017-08-30T04:30:17.243Z,100860
2017-08-30T04:32:45.412Z,100862
2017-08-30T04:35:13.585Z,100878
2017-08-30T04:37:41.776Z,100881
2017-08-30T04:40:09.926Z,100883
2017-08-30T04:42:38.860Z,100871
2017-08-30T04:45:08.310Z,100872
2017-08-30T04:47:36.513Z,100873
2017-08-30T04:50:04.667Z,100882
2017-08-30T04:52:32.873Z,100869
2017-08-30T04:55:01.022Z,100868
2017-08-30T04:57:29.189Z,100871
2017-08-30T04:59:58.145Z,100866
2017-08-30T05:02:26.321Z,100865
2017-08-30T05:04:54.493Z,100855
2017-08-30T05:07:22.881Z,100851
2017-08-30T05:09:51.035Z,100835
2017-08-30T05:12:19.205Z,100851
2017-08-30T05:14:47.401Z,100844
2017-08-30T05:17:15.555Z,100829
2017-08-30T05:19:43.708Z,100836
2017-08-30T05:22:11.908Z,100838
2017-08-30T05:24:40.081Z,100848
2017-08-30T05:27:08.254Z,100826
2017-08-30T05:29:36.455Z,100832
2017-08-30T05:32:04.624Z,100833
2017-08-30T05:34:32.792Z,100831
2017-08-30T05:37:00.970Z,100833
2017-08-30T05:39:29.145Z,100825
2017-08-30T05:41:57.329Z,100815
2017-08-30T05:44:25.804Z,100806
2017-08-30T05:46:53.965Z,100799
2017-08-30T05:49:22.122Z,100798
2017-08-30T05:51:50.303Z,100796
2017-08-30T05:54:18.473Z,100790
2017-08-30T05:56:46.653Z,100779
2017-08-30T05:59:14.835Z,100784
2017-08-30T06:01:43.324Z,100790
2017-08-30T06:04:11.495Z,100789
2017-08-30T06:06:39.678Z,100788
2017-08-30T06:09:07.852Z,100796
2017-08-30T06:11:36.027Z,100794
2017-08-30T06:14:04.220Z,100791
2017-08-30T06:16:32.397Z,100787
2017-08-30T06:19:00.550Z,100784
2017-08-30T06:21:28.744Z,100773
2017-08-30T06:23:56.918Z,100770
2017-08-30T06:26:25.086Z,100755
2017-08-30T06:28:53.294Z,100751
2017-08-30T06:31:21.448Z,100754
2017-08-30T06:33:49.617Z,100763
2017-08-30T06:36:17.821Z,100760
2017-08-30T06:38:45.979Z,100771
2017-08-30T06:41:14.136Z,100768
2017-08-30T06:43:42.323Z,100776
2017-08-30T06:46:10.495Z,100773
2017-08-30T06:48:38.652Z,100781
2017-08-30T06:51:06.865Z,100781
2017-08-30T06:53:35.811Z,100785
2017-08-30T06:56:03.981Z,100791
2017-08-30T06:58:32.177Z,100786
2017-08-30T07:01:00.330Z,100789
2017-08-30T07:03:28.510Z,100787
2017-08-30T07:05:57.619Z,100797
2017-08-30T07:08:25.782Z,100792
2017-08-30T07:10:53.938Z,100794
2017-08-30T07:13:22.201Z,100776
2017-08-30T07:15:50.374Z,100771
2017-08-30T07:18:18.546Z,100768
2017-08-30T07:20:46.737Z,100764
2017-08-30T07:23:14.910Z,100758
2017-08-30T07:25:43.063Z,100771
2017-08-30T07:28:11.275Z,100769
2017-08-30T07:30:39.436Z,100770
2017-08-30T07:33:07.608Z,100769
2017-08-30T07:35:36.537Z,100782
2017-08-30T07:38:04.713Z,100786
2017-08-30T07:40:32.889Z,100780
2017-08-30T07:43:01.133Z,100776
2017-08-30T07:45:29.290Z,100777
2017-08-30T07:48:01.649Z,100780
2017-08-30T07:50:31.749Z,100781
2017-08-30T07:53:08.046Z,100770
2017-08-30T07:55:37.206Z,100766
2017-08-30T07:58:05.365Z,100764
2017-08-30T08:00:33.524Z,100765
2017-08-30T08:03:01.736Z,100764
2017-08-30T08:05:43.813Z,100771
2017-08-30T08:08:12.038Z,100776
2017-08-30T08:10:40.198Z,100779
2017-08-30T08:13:08.359Z,100786
2017-08-30T08:15:36.558Z,100783
2017-08-30T08:18:04.725Z,100780
2017-08-30T08:20:32.900Z,100781
2017-08-30T08:23:05.959Z,100772
2017-08-30T08:25:34.245Z,100768
2017-08-30T08:28:04.428Z,100757
2017-08-30T08:30:32.623Z,100761
2017-08-30T08:33:00.800Z,100751
2017-08-30T08:35:28.993Z,100753
2017-08-30T08:37:58.251Z,100757
2017-08-30T08:40:26.677Z,100770
2017-08-30T08:42:54.853Z,100768
2017-08-30T08:45:23.054Z,100774
2017-08-30T08:47:51.226Z,100769
2017-08-30T08:50:19.471Z,100760
2017-08-30T21:24:04.694Z,100465
2017-08-30T21:26:32.869Z,100427
2017-08-30T21:29:01.015Z,100416
2017-08-30T21:31:29.218Z,100420
2017-08-30T21:33:57.387Z,100430
2017-08-30T21:36:25.691Z,100428
2017-08-30T21:38:53.893Z,100412
2017-08-30T21:41:22.053Z,100414
2017-08-30T21:43:50.208Z,100403
2017-08-30T21:46:19.168Z,100396
2017-08-30T21:48:47.823Z,100412
2017-08-30T21:51:16.459Z,100425
2017-08-30T21:53:44.706Z,100431
2017-08-30T21:56:12.888Z,100433
2017-08-30T21:58:41.042Z,100425
2017-08-30T22:01:09.237Z,100421
2017-08-30T22:03:37.410Z,100417
2017-08-30T22:06:05.583Z,100420
2017-08-30T22:08:33.771Z,100419
2017-08-30T22:11:01.924Z,100433
2017-08-30T22:13:30.073Z,100424
2017-08-30T22:15:58.256Z,100424
2017-08-30T22:18:26.403Z,100423
2017-08-30T22:20:54.550Z,100424
2017-08-30T22:23:22.729Z,100413
2017-08-30T22:25:50.881Z,100414
2017-08-30T22:28:19.035Z,100405
2017-08-30T22:30:47.211Z,100407
2017-08-30T22:33:15.382Z,100394
2017-08-30T22:35:43.554Z,100399
2017-08-30T22:38:11.731Z,100397
2017-08-30T22:40:39.878Z,100376
2017-08-30T22:43:08.031Z,100383
2017-08-30T22:45:36.210Z,100382
2017-08-30T22:48:05.169Z,100380
2017-08-30T22:50:33.340Z,100387
2017-08-30T22:53:01.523Z,100384
2017-08-30T22:55:29.683Z,100384
2017-08-30T22:57:57.836Z,100382
2017-08-30T23:00:26.039Z,100382
2017-08-30T23:02:54.212Z,100387
2017-08-30T23:05:22.681Z,100389
2017-08-30T23:07:50.886Z,100384
2017-08-30T23:10:19.029Z,100383
2017-08-30T23:12:47.179Z,100372
2017-08-30T23:15:15.373Z,100369
2017-08-30T23:17:43.524Z,100345
2017-08-30T23:20:11.671Z,100334
2017-08-30T23:22:40.617Z,100324
2017-08-30T23:25:08.785Z,100310
2017-08-30T23:27:36.935Z,100301
2017-08-30T23:30:05.111Z,100305
2017-08-30T23:32:33.282Z,100324
2017-08-30T23:35:01.430Z,100323
2017-08-30T23:37:29.971Z,100324
2017-08-30T23:39:58.118Z,100319
2017-08-30T23:42:26.269Z,100308
2017-08-30T23:44:54.480Z,100324
2017-08-30T23:47:22.636Z,100309
2017-08-30T23:49:50.792Z,100305
2017-08-30T23:52:18.975Z,100296
2017-08-30T23:54:47.910Z,100290
2017-08-30T23:57:16.076Z,100287
2017-08-30T23:59:44.273Z,100301
